Time;durP1;ratioP1;P1;durP2;ratioP2;P2;SDS_P1;SDS_P2;PMS_P1;PMS_P2;Temp;Humidity;BMP_temperature;BMP_pressure;BME280_temperature;BME280_humidity;BME280_pressure;Samples;Min_cycle;Max_cycle;Signal;HPM_P1;HPM_P2
2021/01/28 07:07:08;;;;;;;10.25;4.72;;;;;;;6.24;75.19;95204.03;1056373;27;20350;-62
2021/01/28 07:07:48;;;;;;;5.90;4.68;;;;;;;5.71;76.62;95210.41;1056212;28;20286;-68
2021/01/28 07:08:31;;;;;;;6.13;4.53;;;;;;;5.47;78.59;95204.72;1052295;28;20463;-63
2021/01/28 07:09:22;;;;;;;24.55;5.30;;;;;;;4.98;80.27;95204.13;1055976;28;20426;-63
2021/01/28 07:09:57;;;;;;;16.73;5.40;;;;;;;4.76;81.44;95199.72;1052743;28;20024;-63
2021/01/28 07:10:35;;;;;;;8.15;5.55;;;;;;;4.49;82.60;95205.03;1055965;28;20034;-63
2021/01/28 07:11:05;;;;;;;6.30;4.80;;;;;;;4.37;83.48;95207.03;1056054;28;20032;-63
2021/01/28 07:11:38;;;;;;;8.10;5.73;;;;;;;4.26;83.37;95198.22;1052648;28;20024;-63
2021/01/28 07:12:09;;;;;;;10.05;6.47;;;;;;;4.13;84.14;95203.88;1051849;28;20071;-63
2021/01/28 07:12:44;;;;;;;8.98;5.80;;;;;;;4.11;84.53;95201.50;1051654;28;20032;-63
2021/01/28 07:13:40;;;;;;;15.65;6.53;;;;;;;3.84;85.80;95204.09;1056030;28;20115;-63
2021/01/28 07:14:14;;;;;;;18.55;6.78;;;;;;;3.75;86.79;95196.84;1052166;28;20412;-63
2021/01/28 07:14:47;;;;;;;9.50;5.65;;;;;;;3.71;86.78;95203.66;1051776;28;20082;-63
2021/01/28 07:15:17;;;;;;;6.82;5.47;;;;;;;3.69;87.26;95197.84;1056014;28;20115;-64
2021/01/28 07:15:51;;;;;;;19.13;5.73;;;;;;;3.52;87.83;95195.22;1051827;28;20142;-64
2021/01/28 07:16:33;;;;;;;35.42;6.80;;;;;;;3.43;88.19;95194.03;1048647;28;20135;-64
2021/01/28 07:17:12;;;;;;;10.27;7.13;;;;;;;3.33;88.36;95198.16;1045422;28;20088;-64
2021/01/28 07:17:51;;;;;;;8.77;6.47;;;;;;;3.16;90.03;95188.66;1046692;28;20110;-64
2021/01/28 07:18:26;;;;;;;11.02;6.68;;;;;;;3.06;90.54;95197.22;1047722;28;20028;-64
2021/01/28 07:19:02;;;;;;;10.10;7.13;;;;;;;3.03;90.22;95193.25;1048675;28;20488;-64
2021/01/28 07:19:37;;;;;;;9.52;7.55;;;;;;;3.05;89.81;95198.28;1044190;28;20037;-64
2021/01/28 07:20:43;;;;;;;11.88;7.50;;;;;;;2.94;91.39;95194.69;1041569;28;20478;-64
2021/01/28 07:21:27;;;;;;;11.60;6.65;;;;;;;2.79;92.07;95200.53;1047277;28;20063;-64
2021/01/28 07:21:58;;;;;;;10.43;7.55;;;;;;;2.81;91.65;95192.38;1054510;28;20036;-65
2021/01/28 07:22:38;;;;;;;10.77;7.07;;;;;;;2.82;91.90;95194.00;1051068;28;20485;-64
2021/01/28 07:23:28;;;;;;;10.63;8.00;;;;;;;2.67;93.14;95196.38;1048211;28;20529;-64
2021/01/28 07:24:00;;;;;;;15.10;7.40;;;;;;;2.67;93.61;95196.38;1047434;28;20127;-64
2021/01/28 07:24:30;;;;;;;16.95;7.63;;;;;;;2.67;93.71;95199.03;1051841;28;20027;-64
2021/01/28 07:25:26;;;;;;;23.17;7.40;;;;;;;2.55;93.95;95186.69;1050356;28;20032;-65
2021/01/28 07:26:12;;;;;;;15.13;7.82;;;;;;;2.46;95.14;95185.50;1047377;28;20575;-65
2021/01/28 07:27:05;;;;;;;25.23;8.52;;;;;;;2.39;95.66;95176.91;1047501;28;20033;-64
2021/01/28 07:28:26;;;;;;;15.63;8.38;;;;;;;2.36;95.61;95177.41;1048363;28;20025;-64
2021/01/28 07:28:57;;;;;;;14.13;8.45;;;;;;;2.24;96.27;95185.38;1043241;28;20112;-65
2021/01/28 07:29:30;;;;;;;14.17;8.93;;;;;;;2.23;96.98;95175.84;1035002;28;20034;-64
2021/01/28 07:30:00;;;;;;;20.98;9.82;;;;;;;2.25;96.65;95186.16;1040976;28;20030;-64
2021/01/28 07:30:43;;;;;;;13.17;8.47;;;;;;;2.21;96.49;95177.16;1047691;28;20025;-64
2021/01/28 07:31:46;;;;;;;18.40;10.10;;;;;;;2.18;97.32;95188.16;1050556;28;20515;-64
2021/01/28 07:32:26;;;;;;;14.43;9.75;;;;;;;2.20;97.09;95180.78;1055875;28;20028;-64
2021/01/28 07:32:56;;;;;;;16.33;10.18;;;;;;;2.19;97.68;95176.56;1056053;28;20026;-63
2021/01/28 07:33:30;;;;;;;14.77;9.60;;;;;;;2.18;96.99;95181.03;1056001;28;20031;-64
2021/01/28 07:34:01;;;;;;;14.35;10.00;;;;;;;2.19;96.90;95182.63;1055828;28;20488;-64
2021/01/28 07:34:31;;;;;;;17.85;9.98;;;;;;;2.13;98.09;95180.16;1056036;28;20028;-64
2021/01/28 07:35:27;;;;;;;19.30;9.90;;;;;;;2.11;97.75;95177.75;1055880;28;20059;-64
2021/01/28 07:35:58;;;;;;;19.60;9.60;;;;;;;2.05;98.48;95181.34;1056189;28;20090;-64
2021/01/28 07:36:28;;;;;;;15.55;9.25;;;;;;;2.01;99.21;95181.00;1055935;28;20032;-64
2021/01/28 07:37:23;;;;;;;17.47;10.17;;;;;;;2.00;98.79;95182.06;1055991;28;20104;-65
2021/01/28 07:37:54;;;;;;;25.13;10.73;;;;;;;2.01;99.25;95172.31;1054805;28;20136;-64
2021/01/28 07:38:28;;;;;;;24.15;9.23;;;;;;;2.02;99.08;95176.53;1056226;28;20073;-65
2021/01/28 07:39:03;;;;;;;15.68;9.80;;;;;;;1.98;99.01;95173.56;1056281;28;20023;-64
2021/01/28 07:39:37;;;;;;;19.13;9.60;;;;;;;1.96;99.79;95175.66;1056219;28;20031;-65
2021/01/28 07:40:08;;;;;;;13.82;9.25;;;;;;;1.87;99.84;95173.63;1056127;28;20020;-65
2021/01/28 07:41:05;;;;;;;20.48;9.88;;;;;;;1.87;99.99;95178.88;1056201;28;20110;-65
2021/01/28 07:41:53;;;;;;;17.48;10.15;;;;;;;1.86;100.00;95180.72;1056273;28;20063;-64
2021/01/28 07:42:28;;;;;;;22.98;10.57;;;;;;;1.87;100.00;95178.88;1051639;28;20488;-65
2021/01/28 07:43:02;;;;;;;14.95;9.43;;;;;;;1.86;100.00;95175.47;1051702;28;20111;-65
2021/01/28 07:43:34;;;;;;;19.15;9.90;;;;;;;1.89;100.00;95171.53;1051762;28;20027;-65
2021/01/28 07:44:30;;;;;;;17.15;9.63;;;;;;;1.86;100.00;95166.75;1053433;28;20058;-65
2021/01/28 07:45:26;;;;;;;17.15;9.75;;;;;;;1.89;100.00;95171.53;1056291;28;20038;-64
2021/01/28 07:46:21;;;;;;;20.60;9.43;;;;;;;1.83;100.00;95173.28;1056268;28;20076;-65
2021/01/28 07:46:52;;;;;;;17.52;9.05;;;;;;;1.84;100.00;95166.97;1056184;28;20020;-65
2021/01/28 07:47:31;;;;;;;17.85;9.77;;;;;;;1.83;100.00;95162.75;1055878;28;20514;-65
2021/01/28 07:48:03;;;;;;;17.48;9.88;;;;;;;1.85;100.00;95162.53;1055919;28;20476;-64
2021/01/28 07:48:33;;;;;;;15.95;10.60;;;;;;;1.88;100.00;95160.19;1051635;28;20075;-65
2021/01/28 07:49:11;;;;;;;18.00;10.60;;;;;;;1.88;100.00;95154.94;1048937;28;20402;-65
2021/01/28 07:50:07;;;;;;;19.85;9.32;;;;;;;1.94;100.00;95153.19;1051811;28;20052;-65
2021/01/28 07:50:38;;;;;;;15.23;9.48;;;;;;;1.94;100.00;95156.63;1055917;28;20028;-65
2021/01/28 07:51:31;;;;;;;13.13;8.90;;;;;;;1.91;100.00;95151.84;1055829;28;20468;-65
2021/01/28 07:52:02;;;;;;;15.57;9.52;;;;;;;1.90;100.00;95154.72;1055885;28;20031;-65
2021/01/28 07:52:38;;;;;;;19.20;10.30;;;;;;;1.90;100.00;95155.50;1055739;28;20130;-65
2021/01/28 07:53:28;;;;;;;14.57;9.43;;;;;;;1.96;100.00;95153.78;1056172;28;20418;-65
2021/01/28 07:53:59;;;;;;;;;;;;;;;1.89;100.00;95150.47;1056656;28;20477;-65
2021/01/28 07:54:29;;;;;;;18.90;9.00;;;;;;;1.86;100.00;95149.09;1056195;28;19995;-65
2021/01/28 07:54:59;;;;;;;23.47;9.90;;;;;;;1.90;100.00;95152.88;1056248;28;20016;-66
2021/01/28 07:55:36;;;;;;;17.13;10.20;;;;;;;1.91;100.00;95153.69;1055699;28;20012;-65
2021/01/28 07:56:36;;;;;;;23.00;9.80;;;;;;;1.93;100.00;95155.03;1055953;28;20481;-65
2021/01/28 07:57:10;;;;;;;17.23;9.13;;;;;;;1.92;100.00;95156.06;1055829;28;20476;-65
2021/01/28 07:57:44;;;;;;;14.20;8.68;;;;;;;1.93;100.00;95155.03;1056220;28;20028;-65
2021/01/28 07:58:30;;;;;;;24.80;8.80;;;;;;;1.93;100.00;95146.31;1056143;28;20035;-65
2021/01/28 07:59:06;;;;;;;20.35;9.02;;;;;;;1.92;100.00;95142.09;1051640;28;20020;-65
2021/01/28 07:59:39;;;;;;;18.40;9.23;;;;;;;1.93;100.00;95144.47;1055836;28;20508;-65
2021/01/28 08:00:15;;;;;;;18.42;10.20;;;;;;;1.94;100.00;95148.72;1054954;28;20524;-66
2021/01/28 08:00:46;;;;;;;20.80;9.15;;;;;;;1.97;100.00;95135.06;1052276;28;20085;-66
2021/01/28 08:01:16;;;;;;;15.93;8.77;;;;;;;1.97;100.00;95132.44;1054406;28;20116;-66
2021/01/28 08:01:47;;;;;;;22.87;9.70;;;;;;;1.98;100.00;95136.66;1047468;28;20042;-63
2021/01/28 08:02:30;;;;;;;15.65;8.40;;;;;;;1.97;100.00;95140.34;1043505;28;20448;-63
2021/01/28 08:03:03;;;;;;;19.50;9.13;;;;;;;1.97;100.00;95136.91;1047418;28;20091;-65
2021/01/28 08:03:46;;;;;;;31.95;9.88;;;;;;;1.92;100.00;95142.09;1049652;28;20028;-66
2021/01/28 08:04:28;;;;;;;26.48;9.88;;;;;;;1.92;100.00;95139.47;1059881;28;20046;-66
2021/01/28 08:05:08;;;;;;;27.75;10.32;;;;;;;1.92;100.00;95142.88;1060030;28;20020;-66
2021/01/28 08:05:39;;;;;;;20.65;9.60;;;;;;;1.96;100.00;95140.59;1055801;28;20031;-65
2021/01/28 08:06:11;;;;;;;35.63;9.77;;;;;;;1.94;100.00;95135.53;1047537;28;20017;-65
2021/01/28 08:06:41;;;;;;;40.65;9.13;;;;;;;1.95;100.00;95139.78;1047224;28;20190;-66
2021/01/28 08:07:14;;;;;;;28.90;9.23;;;;;;;1.94;100.00;95132.09;1048009;28;20466;-66
2021/01/28 08:07:46;;;;;;;28.13;9.48;;;;;;;1.83;100.00;95131.13;1052262;28;20099;-65
2021/01/28 08:08:19;;;;;;;23.17;9.63;;;;;;;1.87;100.00;95134.91;1055293;28;20103;-65
2021/01/28 08:09:14;;;;;;;37.63;9.95;;;;;;;1.88;100.00;95125.94;1051655;28;20020;-65
2021/01/28 08:09:52;;;;;;;21.90;8.88;;;;;;;1.87;100.00;95134.09;1051629;28;20020;-65
2021/01/28 08:10:24;;;;;;;25.73;10.30;;;;;;;1.86;100.00;95128.03;1051737;28;20032;-65
2021/01/28 08:10:54;;;;;;;31.42;9.57;;;;;;;1.90;100.00;95128.38;1052018;28;20077;-65
2021/01/28 08:11:25;;;;;;;21.67;9.57;;;;;;;1.94;100.00;95125.00;1051499;28;20081;-65
2021/01/28 08:11:55;;;;;;;31.40;9.80;;;;;;;1.92;100.00;95124.44;1051653;28;20058;-65
2021/01/28 08:12:37;;;;;;;45.73;10.57;;;;;;;1.93;100.00;95131.31;1051524;28;20013;-65
2021/01/28 08:13:22;;;;;;;38.40;10.70;;;;;;;1.92;100.00;95128.91;1055609;28;20069;-65
2021/01/28 08:13:53;;;;;;;32.13;10.38;;;;;;;1.88;100.00;95118.03;1055802;28;20020;-65
2021/01/28 08:14:25;;;;;;;29.67;10.13;;;;;;;1.94;100.00;95117.09;1055788;28;20090;-65
2021/01/28 08:14:56;;;;;;;22.10;10.43;;;;;;;1.96;100.00;95128.22;1055879;28;20493;-65
2021/01/28 08:15:48;;;;;;;28.57;11.33;;;;;;;1.99;100.00;95114.53;1059937;28;20043;-65
2021/01/28 08:16:18;;;;;;;28.52;9.88;;;;;;;1.96;100.00;95104.50;1060051;28;20035;-65
2021/01/28 08:16:50;;;;;;;33.70;11.23;;;;;;;1.96;100.00;95112.41;1059049;28;20368;-65
2021/01/28 08:17:31;;;;;;;24.02;9.40;;;;;;;1.93;100.00;95114.69;1052498;28;20016;-65
2021/01/28 08:18:29;;;;;;;22.52;9.40;;;;;;;1.95;100.00;95110.81;1048916;28;20466;-65
2021/01/28 08:19:01;;;;;;;33.45;10.88;;;;;;;2.02;100.00;95108.00;1045855;28;20108;-65
2021/01/28 08:19:31;;;;;;;26.38;10.35;;;;;;;1.99;100.00;95103.19;1048703;28;20494;-65
2021/01/28 08:20:22;;;;;;;36.23;11.07;;;;;;;1.98;100.00;95101.63;1052898;28;20024;-66
2021/01/28 08:21:04;;;;;;;;;;;;;;;1.97;100.00;95100.81;1053702;28;20031;-65
2021/01/28 08:21:35;;;;;;;30.63;9.88;;;;;;;2.01;100.00;95104.59;1052987;28;19943;-66
2021/01/28 08:22:17;;;;;;;29.30;10.80;;;;;;;2.02;100.00;95095.63;1053199;28;20090;-66
2021/01/28 08:23:04;;;;;;;29.30;9.82;;;;;;;2.04;100.00;95101.44;1053154;28;20441;-65
2021/01/28 08:23:36;;;;;;;24.02;9.45;;;;;;;2.03;100.00;95104.34;1050920;28;20020;-65
2021/01/28 08:24:21;;;;;;;32.00;10.45;;;;;;;2.06;100.00;95101.25;1053121;28;20032;-65
2021/01/28 08:24:53;;;;;;;23.65;8.82;;;;;;;2.06;100.00;95099.41;1050618;28;20012;-66
2021/01/28 08:25:25;;;;;;;28.45;9.88;;;;;;;2.05;100.00;95097.81;1053231;28;20122;-64
2021/01/28 08:25:58;;;;;;;24.25;10.35;;;;;;;2.05;100.00;95095.16;1053234;28;20484;-64
2021/01/28 08:26:30;;;;;;;26.20;12.15;;;;;;;2.03;100.00;95099.88;1053216;28;20373;-66
2021/01/28 08:27:15;;;;;;;47.05;11.18;;;;;;;2.02;100.00;95087.72;1052988;28;20027;-64
2021/01/28 08:27:45;;;;;;;37.55;10.07;;;;;;;2.02;100.00;95089.56;1051416;28;20069;-63
2021/01/28 08:28:17;;;;;;;50.60;10.13;;;;;;;2.00;100.00;95089.81;1052077;28;20085;-64
2021/01/28 08:28:47;;;;;;;27.25;10.25;;;;;;;2.04;100.00;95096.19;1052643;28;20023;-63
2021/01/28 08:29:19;;;;;;;35.50;9.60;;;;;;;2.00;100.00;95089.81;1052895;28;20083;-63
2021/01/28 08:30:16;;;;;;;35.50;10.38;;;;;;;1.96;100.00;95086.03;1052963;28;20437;-63
2021/01/28 08:30:46;;;;;;;33.47;10.23;;;;;;;2.02;100.00;95086.94;1053275;28;20039;-64
2021/01/28 08:31:25;;;;;;;26.83;9.60;;;;;;;2.04;100.00;95090.13;1053164;28;20039;-63
2021/01/28 08:31:55;;;;;;;27.48;10.00;;;;;;;2.06;100.00;95086.22;1053225;28;20016;-66
2021/01/28 08:32:27;;;;;;;36.57;9.53;;;;;;;2.08;100.00;95089.41;1053179;28;20030;-66
2021/01/28 08:32:59;;;;;;;26.25;10.02;;;;;;;2.13;100.00;95088.69;1052553;28;20590;-64
2021/01/28 08:33:29;;;;;;;32.97;9.70;;;;;;;2.16;100.00;95088.22;1048683;28;20020;-64
2021/01/28 08:34:02;;;;;;;22.67;9.10;;;;;;;2.17;100.00;95083.75;1048670;28;20016;-64
2021/01/28 08:34:32;;;;;;;18.77;8.57;;;;;;;2.17;100.00;95087.19;1048750;28;20012;-64
2021/01/28 08:35:30;;;;;;;24.80;8.90;;;;;;;2.21;100.00;95080.41;1049190;28;20025;-64
2021/01/28 08:36:01;;;;;;;20.13;8.57;;;;;;;2.21;100.00;95077.75;1049974;28;20032;-64
2021/01/28 08:36:43;;;;;;;22.77;8.52;;;;;;;2.21;100.00;95079.59;1052829;28;20021;-64
2021/01/28 08:37:14;;;;;;;19.48;8.90;;;;;;;2.19;100.00;95071.13;1052827;28;20034;-64
2021/01/28 08:37:45;;;;;;;18.42;7.78;;;;;;;2.20;100.00;95081.44;1052942;28;20526;-65
2021/01/28 08:38:21;;;;;;;16.83;8.00;;;;;;;2.20;100.00;95078.81;1052830;28;20020;-64
2021/01/28 08:39:08;;;;;;;27.88;7.72;;;;;;;2.21;100.00;95076.97;1053028;28;20461;-64
2021/01/28 08:39:38;;;;;;;21.73;8.05;;;;;;;2.16;100.00;95074.25;1053200;28;20036;-65
2021/01/28 08:40:22;;;;;;;17.97;8.50;;;;;;;2.19;100.00;95063.22;1052875;28;20020;-64
2021/01/28 08:41:11;;;;;;;14.48;8.13;;;;;;;2.20;100.00;95072.72;1052923;28;20533;-65
2021/01/28 08:41:43;;;;;;;16.23;7.30;;;;;;;2.23;100.00;95069.59;1049025;28;20036;-64
2021/01/28 08:42:17;;;;;;;33.38;8.30;;;;;;;2.23;100.00;95064.34;1052839;28;20430;-65
2021/01/28 08:42:48;;;;;;;21.35;8.07;;;;;;;2.22;100.00;95068.00;1052771;28;20042;-65
2021/01/28 08:43:19;;;;;;;15.93;7.47;;;;;;;2.26;100.00;95067.28;1052592;28;20074;-65
2021/01/28 08:44:07;;;;;;;15.07;7.33;;;;;;;2.14;100.00;95061.28;1053231;28;20039;-66
2021/01/28 08:44:39;;;;;;;13.57;6.60;;;;;;;2.13;100.00;95064.97;1053116;28;20032;-66
2021/01/28 08:45:22;;;;;;;25.60;8.77;;;;;;;2.14;100.00;95057.84;1052820;28;20024;-66
2021/01/28 08:46:07;;;;;;;12.43;7.13;;;;;;;2.13;100.00;95059.69;1052945;28;20020;-66
2021/01/28 08:46:38;;;;;;;18.95;7.28;;;;;;;2.19;100.00;95058.72;1052765;28;20040;-66
2021/01/28 08:47:23;;;;;;;21.48;7.70;;;;;;;2.17;100.00;95062.66;1053198;28;20024;-66
2021/01/28 08:47:57;;;;;;;18.38;6.85;;;;;;;2.18;100.00;95058.97;1053135;28;20064;-66
2021/01/28 08:48:27;;;;;;;14.95;6.80;;;;;;;2.17;100.00;95057.38;1053117;28;20020;-66
2021/01/28 08:49:14;;;;;;;14.87;7.50;;;;;;;2.21;100.00;95056.69;1053068;28;20028;-63
2021/01/28 08:49:48;;;;;;;19.90;6.55;;;;;;;2.20;100.00;95057.72;1053283;28;20089;-64
2021/01/28 08:50:20;;;;;;;22.60;7.00;;;;;;;2.15;100.00;95059.44;1053101;28;20024;-66
2021/01/28 08:50:51;;;;;;;23.52;7.70;;;;;;;2.18;100.00;95051.06;1053094;28;20031;-66
2021/01/28 08:51:24;;;;;;;17.20;7.38;;;;;;;2.21;100.00;95051.41;1048456;28;20516;-68
2021/01/28 08:52:23;;;;;;;11.85;6.90;;;;;;;2.14;100.00;95052.59;1048618;28;20078;-64
2021/01/28 08:52:58;;;;;;;12.68;6.78;;;;;;;2.11;100.00;95053.09;1049282;28;20051;-64
2021/01/28 08:53:29;;;;;;;12.48;7.00;;;;;;;2.09;100.00;95046.19;1056870;28;20020;-64
2021/01/28 08:54:01;;;;;;;12.80;7.17;;;;;;;2.14;100.00;95049.94;1052004;28;20028;-64
2021/01/28 08:54:35;;;;;;;16.48;6.72;;;;;;;2.18;100.00;95049.22;1044207;28;20024;-64
2021/01/28 08:55:20;;;;;;;15.55;7.25;;;;;;;2.18;100.00;95045.81;1035054;28;20534;-64
2021/01/28 08:55:50;;;;;;;14.38;7.25;;;;;;;2.20;100.00;95048.97;1041235;28;20025;-64
2021/01/28 08:56:22;;;;;;;17.30;7.60;;;;;;;2.21;100.00;95037.41;1043370;28;20495;-65
2021/01/28 08:56:54;;;;;;;12.68;6.60;;;;;;;2.17;100.00;95047.63;1040996;28;20105;-64
2021/01/28 08:57:24;;;;;;;25.77;7.65;;;;;;;2.19;100.00;95036.84;1040252;28;20049;-64
2021/01/28 08:58:10;;;;;;;23.67;6.87;;;;;;;2.23;100.00;95040.59;1036226;28;20034;-64
2021/01/28 08:58:41;;;;;;;10.02;6.43;;;;;;;2.20;100.00;95036.63;1032840;28;20023;-64
2021/01/28 08:59:13;;;;;;;11.88;6.00;;;;;;;2.20;100.00;95038.44;1038588;28;20085;-64
2021/01/28 08:59:51;;;;;;;9.65;6.03;;;;;;;2.28;100.00;95046.75;1038567;28;20026;-64
2021/01/28 09:00:22;;;;;;;9.57;5.63;;;;;;;2.32;100.00;95044.44;1037748;28;20034;-64
2021/01/28 09:00:58;;;;;;;8.07;5.00;;;;;;;2.28;100.00;95033.56;1044497;28;20049;-64
2021/01/28 09:01:28;;;;;;;8.35;4.68;;;;;;;2.33;100.00;95046.81;1044431;28;20470;-64
2021/01/28 09:02:00;;;;;;;8.20;4.10;;;;;;;2.33;100.00;95040.75;1040390;28;20057;-64
2021/01/28 09:02:32;;;;;;;8.98;4.22;;;;;;;2.33;100.00;95041.56;1033137;28;20025;-64
2021/01/28 09:03:02;;;;;;;10.45;4.53;;;;;;;2.37;100.00;95041.88;1037950;28;20109;-64
2021/01/28 09:03:35;;;;;;;11.00;4.47;;;;;;;2.46;100.00;95039.66;1041144;28;20026;-64
2021/01/28 09:04:09;;;;;;;8.55;4.55;;;;;;;2.47;100.00;95041.22;1041280;28;20043;-63
2021/01/28 09:04:41;;;;;;;7.10;3.60;;;;;;;2.54;100.00;95037.38;1040357;28;20025;-63
2021/01/28 09:05:22;;;;;;;7.63;3.70;;;;;;;2.55;100.00;95038.97;1040453;28;20026;-64
2021/01/28 09:05:53;;;;;;;9.65;3.28;;;;;;;2.54;100.00;95039.22;1044929;28;20021;-64
2021/01/28 09:06:23;;;;;;;5.40;2.80;;;;;;;2.52;100.00;95039.47;1052346;28;20020;-65
2021/01/28 09:06:54;;;;;;;5.63;2.77;;;;;;;2.51;100.00;95040.50;1057144;28;20416;-64
2021/01/28 09:07:52;;;;;;;4.57;2.60;;;;;;;2.54;100.00;95033.94;1057391;28;20367;-64
2021/01/28 09:08:37;;;;;;;4.28;2.40;;;;;;;2.55;100.00;95025.78;1057208;27;20024;-64
2021/01/28 09:09:15;;;;;;;5.50;2.42;;;;;;;2.57;100.00;95028.97;1056949;28;20016;-64
2021/01/28 09:10:00;;;;;;;4.90;2.60;;;;;;;2.54;100.00;95033.94;1056940;28;20039;-64
2021/01/28 09:10:34;;;;;;;7.22;2.50;;;;;;;2.56;100.00;95030.03;1057033;28;20020;-64
2021/01/28 09:11:25;;;;;;;3.80;2.50;;;;;;;2.59;100.00;95034.00;1057275;28;20011;-64
2021/01/28 09:12:15;;;;;;;5.57;2.70;;;;;;;2.55;100.00;95024.97;1057300;28;20030;-65
2021/01/28 09:12:46;;;;;;;;;;;;;;;2.55;100.00;95038.97;1053426;28;20490;-66
2021/01/28 09:13:24;;;;;;;6.33;2.47;;;;;;;2.61;100.00;95029.31;1053153;28;19900;-64
2021/01/28 09:14:21;;;;;;;5.15;1.90;;;;;;;2.67;100.00;95038.88;1048500;28;20031;-65
2021/01/28 09:14:51;;;;;;;3.22;2.03;;;;;;;2.70;100.00;95040.22;1048626;28;20025;-64
2021/01/28 09:15:23;;;;;;;4.03;2.20;;;;;;;2.70;100.00;95032.31;1044338;28;20009;-65
2021/01/28 09:16:15;;;;;;;4.63;2.30;;;;;;;2.70;100.00;95037.59;1048152;28;20019;-65
2021/01/28 09:16:53;;;;;;;3.72;2.40;;;;;;;2.71;100.00;95037.34;1039372;28;20478;-65
2021/01/28 09:17:27;;;;;;;5.53;2.22;;;;;;;2.72;100.00;95038.94;1044422;28;20009;-66
2021/01/28 09:18:06;;;;;;;3.80;2.20;;;;;;;2.73;100.00;95035.25;1044348;28;20029;-65
2021/01/28 09:18:47;;;;;;;5.65;2.10;;;;;;;2.76;100.00;95029.47;1046212;28;20020;-64
2021/01/28 09:19:17;;;;;;;4.00;2.08;;;;;;;2.76;100.00;95036.59;1040396;28;20494;-65
2021/01/28 09:20:06;;;;;;;4.20;1.83;;;;;;;2.76;100.00;95031.31;1038809;28;20125;-64
2021/01/28 09:20:37;;;;;;;5.45;2.10;;;;;;;2.76;100.00;95031.31;1044265;28;20066;-65
2021/01/28 09:21:11;;;;;;;5.87;2.43;;;;;;;2.75;100.00;95033.16;1045532;28;20059;-65
2021/01/28 09:21:43;;;;;;;3.72;2.30;;;;;;;2.75;100.00;95035.00;1051620;28;20016;-65
2021/01/28 09:22:42;;;;;;;4.47;2.25;;;;;;;2.77;100.00;95030.31;1048492;28;20096;-66
2021/01/28 09:23:17;;;;;;;6.68;2.10;;;;;;;2.77;100.00;95032.94;1031926;28;20102;-72
2021/01/28 09:23:57;;;;;;;4.78;2.25;;;;;;;2.80;100.00;95020.03;1044700;28;20054;-71
2021/01/28 09:24:45;;;;;;;4.86;2.30;;;;;;;2.78;100.00;95026.63;1048476;28;20044;-78
2021/01/28 09:25:20;;;;;;;4.05;2.15;;;;;;;2.80;100.00;95013.97;1048551;28;20027;-69
2021/01/28 09:26:08;;;;;;;3.65;1.80;;;;;;;2.81;100.00;95007.63;1048264;28;20051;-66
2021/01/28 09:26:39;;;;;;;3.45;1.77;;;;;;;2.84;100.00;95015.09;1048408;28;20055;-65
2021/01/28 09:27:36;;;;;;;2.97;1.70;;;;;;;2.89;100.00;95009.06;1044556;28;20036;-64
2021/01/28 09:28:14;;;;;;;3.40;1.58;;;;;;;2.82;100.00;95007.41;1048224;28;20389;-64
2021/01/28 09:28:45;;;;;;;6.50;2.30;;;;;;;2.81;100.00;95010.28;1049116;28;20020;-66
2021/01/28 09:29:30;;;;;;;3.27;1.93;;;;;;;2.81;100.00;95003.16;1052772;28;20028;-64
2021/01/28 09:30:33;;;;;;;6.47;1.52;;;;;;;2.83;100.00;95010.84;1052336;28;20012;-65
2021/01/28 09:31:19;;;;;;;3.50;1.73;;;;;;;2.85;100.00;95006.13;1052809;28;20085;-66
2021/01/28 09:31:49;;;;;;;2.53;1.70;;;;;;;2.89;100.00;95009.06;1053022;28;20049;-66
2021/01/28 09:32:23;;;;;;;4.57;1.80;;;;;;;2.92;100.00;95011.19;1052615;28;20024;-66
2021/01/28 09:32:53;;;;;;;4.20;2.00;;;;;;;2.90;100.00;95008.81;1048229;28;20470;-66
2021/01/28 09:33:39;;;;;;;5.60;1.70;;;;;;;2.88;100.00;95003.00;1040196;28;20021;-66
2021/01/28 09:34:15;;;;;;;4.22;1.85;;;;;;;2.88;100.00;95000.34;1042698;28;20022;-65
2021/01/28 09:34:46;;;;;;;3.03;1.75;;;;;;;2.89;100.00;94999.31;1042966;28;20059;-66
2021/01/28 09:35:20;;;;;;;5.60;2.03;;;;;;;2.93;100.00;94999.63;1050281;28;20082;-65
2021/01/28 09:36:05;;;;;;;4.38;1.85;;;;;;;2.89;100.00;94999.31;1052703;28;20024;-66
2021/01/28 09:36:37;;;;;;;3.58;1.80;;;;;;;2.88;100.00;94997.72;1051028;28;20078;-66
2021/01/28 09:37:18;;;;;;;6.40;1.80;;;;;;;2.90;100.00;95000.09;1044276;28;20024;-65
2021/01/28 09:38:14;;;;;;;4.35;1.77;;;;;;;2.96;100.00;94997.28;1040270;28;20494;-63
2021/01/28 09:39:07;;;;;;;5.55;2.10;;;;;;;2.92;100.00;94992.72;1041256;28;20121;-74
2021/01/28 09:39:43;;;;;;;17.98;13.45;;;;;;;2.93;100.00;94994.34;1049567;28;20476;-71
2021/01/28 09:40:22;;;;;;;8.00;3.13;;;;;;;2.94;100.00;94994.09;1052828;28;20056;-66
2021/01/28 09:41:09;;;;;;;7.75;2.67;;;;;;;2.91;100.00;94986.66;1052931;28;20057;-74
2021/01/28 09:41:50;;;;;;;6.30;2.40;;;;;;;2.90;100.00;94987.69;1052943;28;20069;-72
2021/01/28 09:42:28;;;;;;;5.20;2.33;;;;;;;2.96;100.00;94980.63;1052715;28;20016;-72
2021/01/28 09:43:30;;;;;;;16.23;2.50;;;;;;;2.93;100.00;94992.50;1048499;28;20013;-82
2021/01/28 09:44:01;;;;;;;4.45;2.10;;;;;;;2.94;100.00;94980.09;1048966;28;20463;-83
2021/01/28 09:44:37;;;;;;;6.05;2.88;;;;;;;2.94;100.00;94980.91;1049425;28;20036;-70
2021/01/28 09:45:11;;;;;;;6.82;2.28;;;;;;;2.95;100.00;94987.75;1052378;28;20503;-76
2021/01/28 09:45:41;;;;;;;3.90;1.60;;;;;;;2.98;100.00;94978.56;1056379;28;20171;-78
2021/01/28 09:46:18;;;;;;;3.50;1.90;;;;;;;2.97;100.00;94972.50;1054833;28;20034;-77
2021/01/28 09:47:01;;;;;;;4.20;1.63;;;;;;;3.02;100.00;94969.91;1053633;28;20067;-76
2021/01/28 09:47:32;;;;;;;2.92;1.50;;;;;;;3.03;100.00;94973.34;1052815;28;20024;-77
2021/01/28 09:48:03;;;;;;;4.20;1.50;;;;;;;3.03;100.00;94968.88;1053026;28;20117;-76
2021/01/28 09:48:33;;;;;;;4.13;1.42;;;;;;;3.08;100.00;94965.47;1052665;28;20362;-76
2021/01/28 09:49:04;;;;;;;5.03;1.80;;;;;;;3.06;100.00;94964.91;1048486;28;20110;-75
2021/01/28 09:49:34;;;;;;;12.73;2.13;;;;;;;3.04;100.00;94962.53;1051930;28;20054;-75
2021/01/28 09:50:06;;;;;;;3.63;1.90;;;;;;;3.03;100.00;94950.38;1048515;28;20085;-75
2021/01/28 09:50:36;;;;;;;6.68;1.80;;;;;;;3.05;100.00;94964.13;1052820;28;20069;-76
2021/01/28 09:51:07;;;;;;;4.90;2.00;;;;;;;3.07;100.00;94962.06;1052749;28;20562;-75
2021/01/28 09:51:37;;;;;;;3.30;1.77;;;;;;;3.15;100.00;94952.88;1048214;28;20021;-76
2021/01/28 09:52:18;;;;;;;4.93;2.00;;;;;;;3.09;100.00;94957.31;1048433;28;20032;-76
2021/01/28 09:52:49;;;;;;;3.33;1.67;;;;;;;3.01;100.00;94955.09;1044264;28;20151;-76
2021/01/28 09:53:20;;;;;;;3.05;1.70;;;;;;;3.03;100.00;94954.88;1047043;28;20432;-75
2021/01/28 09:54:11;;;;;;;3.93;1.87;;;;;;;3.06;100.00;94949.06;1052592;28;20073;-75
2021/01/28 09:54:41;;;;;;;3.92;1.70;;;;;;;3.08;100.00;94947.00;1052992;28;20070;-76
2021/01/28 09:55:15;;;;;;;2.53;1.60;;;;;;;3.11;100.00;94944.66;1052461;28;20040;-76
2021/01/28 09:55:45;;;;;;;3.17;1.67;;;;;;;3.07;100.00;94946.22;1052614;28;20019;-77
2021/01/28 09:56:16;;;;;;;2.73;1.80;;;;;;;3.06;100.00;94954.34;1052515;28;20476;-76
2021/01/28 09:56:46;;;;;;;3.50;1.83;;;;;;;3.08;100.00;94947.81;1052701;28;20491;-76
2021/01/28 09:57:17;;;;;;;3.37;1.67;;;;;;;3.09;100.00;94944.09;1052825;28;20473;-76
2021/01/28 09:57:47;;;;;;;4.43;2.13;;;;;;;3.16;100.00;94945.75;1052781;28;20024;-75
2021/01/28 09:58:18;;;;;;;2.73;1.50;;;;;;;3.13;100.00;94941.78;1052970;28;20020;-75
2021/01/28 09:58:49;;;;;;;4.88;1.90;;;;;;;3.12;100.00;94943.63;1052619;28;20020;-76
2021/01/28 09:59:19;;;;;;;3.67;1.80;;;;;;;3.14;100.00;94943.38;1052445;28;20078;-66
2021/01/28 09:59:50;;;;;;;4.77;2.10;;;;;;;3.12;100.00;94943.63;1048244;28;20445;-70
2021/01/28 10:00:21;;;;;;;3.47;1.83;;;;;;;3.13;100.00;94950.50;1048230;28;20027;-64
2021/01/28 10:00:51;;;;;;;5.28;2.33;;;;;;;3.15;100.00;94939.69;1048330;28;20028;-72
2021/01/28 10:01:22;;;;;;;2.90;1.80;;;;;;;3.13;100.00;94934.66;1048408;28;20058;-67
2021/01/28 10:01:52;;;;;;;2.73;1.67;;;;;;;3.17;100.00;94939.41;1048683;28;20484;-66
2021/01/28 10:02:36;;;;;;;4.07;1.53;;;;;;;3.17;100.00;94942.84;1050062;28;20028;-67
2021/01/28 10:03:06;;;;;;;2.50;1.67;;;;;;;3.17;100.00;94942.06;1044260;28;20020;-67